createdAt,value
2019-04-20T00:02:12.518Z,8.87
2019-04-20T00:04:39.134Z,12.63
2019-04-20T00:07:10.182Z,10.30
2019-04-20T00:09:45.414Z,10.10
2019-04-20T00:12:19.384Z,12.03
2019-04-20T00:14:45.882Z,11.60
2019-04-20T00:17:15.929Z,11.67
2019-04-20T00:19:50.180Z,8.60
2019-04-20T00:22:36.554Z,8.63
2019-04-20T00:25:10.446Z,10.07
2019-04-20T00:28:17.738Z,8.83
2019-04-20T00:30:50.472Z,11.10
2019-04-20T00:33:09.557Z,10.43
2019-04-20T00:35:31.513Z,9.23
2019-04-20T00:38:01.282Z,10.13
2019-04-20T00:40:32.554Z,11.70
2019-04-20T00:43:03.030Z,10.00
2019-04-20T00:45:36.465Z,12.10
2019-04-20T00:48:12.290Z,11.17
2019-04-20T00:50:54.258Z,11.40
2019-04-20T00:53:19.824Z,11.70
2019-04-20T00:55:40.769Z,13.07
2019-04-20T00:58:19.301Z,10.10
2019-04-20T01:01:06.908Z,11.57
2019-04-20T01:03:27.761Z,11.43
2019-04-20T01:06:22.137Z,9.30
2019-04-20T01:08:46.631Z,9.63
2019-04-20T01:11:22.924Z,10.90
2019-04-20T01:13:52.519Z,12.87
2019-04-20T01:16:29.288Z,9.60
2019-04-20T01:18:50.607Z,8.93
2019-04-20T01:21:25.001Z,11.83
2019-04-20T01:23:57.744Z,9.23
2019-04-20T01:26:24.869Z,10.77
2019-04-20T01:29:08.910Z,8.80
2019-04-20T01:31:35.519Z,10.33
2019-04-20T01:34:06.225Z,12.70
2019-04-20T01:36:47.775Z,12.80
2019-04-20T01:39:16.344Z,9.47
2019-04-20T01:41:32.944Z,9.43
2019-04-20T01:44:03.058Z,9.23
2019-04-20T01:46:33.829Z,11.60
2019-04-20T01:49:10.070Z,12.70
2019-04-20T01:51:48.242Z,10.43
2019-04-20T01:54:26.096Z,10.50
2019-04-20T01:56:54.709Z,10.00
2019-04-20T01:59:35.964Z,13.70
2019-04-20T02:02:19.557Z,9.37
2019-04-20T02:05:13.839Z,9.10
2019-04-20T02:07:43.761Z,10.27
2019-04-20T02:10:12.194Z,9.20
2019-04-20T02:12:44.002Z,9.90
2019-04-20T02:15:24.881Z,10.60
2019-04-20T02:17:59.737Z,10.27
2019-04-20T02:20:41.806Z,10.27
2019-04-20T02:23:03.130Z,9.70
2019-04-20T02:25:20.647Z,11.27
2019-04-20T02:27:57.808Z,13.03
2019-04-20T02:30:58.047Z,13.13
2019-04-20T02:36:10.396Z,10.47
2019-04-20T02:41:24.690Z,12.20
2019-04-20T02:46:22.486Z,11.17
2019-04-20T02:49:00.675Z,12.50
2019-04-20T02:51:31.269Z,13.77
2019-04-20T02:54:11.026Z,10.20
2019-04-20T02:56:32.449Z,12.90
2019-04-20T02:59:25.001Z,10.10
2019-04-20T03:01:39.353Z,11.13
2019-04-20T03:03:53.883Z,9.73
2019-04-20T03:06:30.276Z,12.20
2019-04-20T03:09:17.452Z,11.03
2019-04-20T03:11:56.700Z,10.47
2019-04-20T03:14:09.478Z,11.60
2019-04-20T03:16:48.562Z,10.60
2019-04-20T03:19:14.140Z,11.13
2019-04-20T03:22:02.378Z,11.67
2019-04-20T03:24:33.927Z,12.60
2019-04-20T03:26:56.983Z,11.10
2019-04-20T03:30:05.356Z,13.03
2019-04-20T03:32:56.100Z,10.90
2019-04-20T03:35:08.138Z,12.40
2019-04-20T03:37:34.533Z,15.20
2019-04-20T03:39:55.480Z,11.37
2019-04-20T03:42:10.786Z,11.90
2019-04-20T03:44:50.117Z,11.73
2019-04-20T03:47:23.862Z,17.20
2019-04-20T03:50:06.148Z,12.03
2019-04-20T03:52:40.368Z,12.23
2019-04-20T03:55:24.262Z,12.90
2019-04-20T03:58:14.260Z,13.07
2019-04-20T04:00:50.558Z,13.17
2019-04-20T04:03:41.106Z,11.97
2019-04-20T04:06:08.367Z,14.67
2019-04-20T04:08:30.347Z,14.60
2019-04-20T04:11:12.358Z,12.57
2019-04-20T04:13:27.049Z,17.10
2019-04-20T04:16:02.882Z,15.23
2019-04-20T04:18:37.226Z,13.93
2019-04-20T04:21:08.017Z,17.97
2019-04-20T04:23:48.976Z,17.07
2019-04-20T04:26:22.024Z,13.50
2019-04-20T04:28:54.750Z,15.23
2019-04-20T04:31:27.567Z,16.60
2019-04-20T04:33:58.988Z,23.03
2019-04-20T04:36:29.294Z,15.90
2019-04-20T04:39:02.562Z,13.23
2019-04-20T04:41:31.115Z,16.07
2019-04-20T04:44:03.509Z,12.07
2019-04-20T04:46:18.493Z,15.97
2019-04-20T04:48:51.676Z,13.03
2019-04-20T04:51:25.694Z,13.60
2019-04-20T04:53:59.878Z,12.40
2019-04-20T04:56:24.940Z,14.33
2019-04-20T04:58:53.991Z,12.40
2019-04-20T05:01:28.587Z,15.00
2019-04-20T05:06:37.543Z,12.87
2019-04-20T05:09:03.275Z,12.70
2019-04-20T05:11:31.942Z,11.23
2019-04-20T05:14:06.661Z,11.93
2019-04-20T05:16:51.321Z,18.47
2019-04-20T05:19:26.537Z,12.00
2019-04-20T05:22:09.809Z,14.40
2019-04-20T05:25:09.143Z,13.20
2019-04-20T05:27:58.370Z,16.77
2019-04-20T05:30:09.831Z,15.30
2019-04-20T05:32:51.299Z,14.83
2019-04-20T05:35:33.621Z,12.90
2019-04-20T05:38:08.098Z,12.87
2019-04-20T05:40:38.388Z,16.60
2019-04-20T06:18:45.252Z,13.25
2019-04-20T06:29:16.453Z,9.20
2019-04-20T06:44:33.198Z,7.90
2019-04-20T06:57:43.497Z,9.28
2019-04-20T07:02:46.830Z,8.58
2019-04-20T07:05:22.409Z,10.10
2019-04-20T07:07:47.621Z,10.20
2019-04-20T07:10:19.773Z,8.68
2019-04-20T07:12:45.016Z,7.92
2019-04-20T07:15:19.955Z,10.43
2019-04-20T07:17:57.657Z,12.00
2019-04-20T07:20:51.173Z,10.45
2019-04-20T07:23:26.930Z,11.33
2019-04-20T07:25:48.964Z,10.80
2019-04-20T07:28:27.431Z,10.65
2019-04-20T07:30:50.253Z,13.40
2019-04-20T07:33:26.679Z,8.68
2019-04-20T07:35:54.577Z,9.53
2019-04-20T07:40:56.301Z,7.65
2019-04-20T07:43:32.048Z,10.18
2019-04-20T07:46:04.691Z,6.53
2019-04-20T07:48:29.478Z,8.13
2019-04-20T07:50:55.533Z,5.28
2019-04-20T07:53:32.134Z,4.80
2019-04-20T07:56:04.877Z,5.45
2019-04-20T07:58:29.574Z,5.92
2019-04-20T08:01:30.150Z,7.22
2019-04-20T08:04:07.824Z,6.03
2019-04-20T08:06:32.048Z,6.62
2019-04-20T08:09:07.333Z,4.90
2019-04-20T08:14:27.205Z,3.17
2019-04-20T08:17:09.541Z,2.77
2019-04-20T08:19:22.745Z,2.60
2019-04-20T08:21:52.183Z,2.90
2019-04-20T08:24:21.547Z,2.83
2019-04-20T08:26:47.274Z,2.50
2019-04-20T08:29:33.169Z,2.25
2019-04-20T08:32:28.094Z,2.52
2019-04-20T08:37:33.842Z,2.15
2019-04-20T09:04:58.284Z,3.90
2019-04-20T09:07:26.357Z,5.00
2019-04-20T09:14:54.955Z,1.82
2019-04-20T09:17:43.457Z,3.65
2019-04-20T09:20:14.268Z,2.05
2019-04-20T09:23:13.412Z,2.22
2019-04-20T09:25:53.412Z,1.90
2019-04-20T09:28:22.285Z,2.20
2019-04-20T09:31:02.578Z,3.85
2019-04-20T09:34:01.551Z,1.95
2019-04-20T09:36:45.857Z,2.30
2019-04-20T09:39:44.914Z,3.37
2019-04-20T09:42:10.779Z,2.50
2019-04-20T09:44:46.038Z,2.70
2019-04-20T09:47:12.460Z,3.43
2019-04-20T09:49:54.879Z,5.40
2019-04-20T09:52:29.137Z,4.83
2019-04-20T09:55:04.319Z,5.67
2019-04-20T09:57:33.645Z,6.05
2019-04-20T10:00:05.698Z,8.00
2019-04-20T10:02:27.780Z,6.00
2019-04-20T10:07:26.174Z,9.45
2019-04-20T10:09:55.826Z,6.57
2019-04-20T10:14:57.594Z,7.60
2019-04-20T10:17:30.475Z,7.40
2019-04-20T10:20:02.531Z,7.95
2019-04-20T10:22:30.881Z,6.87
2019-04-20T10:25:00.802Z,6.80
2019-04-20T10:27:30.728Z,6.90
2019-04-20T10:30:04.047Z,11.15
2019-04-20T10:32:39.210Z,8.37
2019-04-20T10:35:04.636Z,6.65
2019-04-20T10:37:41.845Z,7.07
2019-04-20T10:40:13.413Z,11.93
2019-04-20T10:42:43.985Z,7.43
2019-04-20T10:45:14.955Z,6.50
2019-04-20T10:47:45.297Z,7.90
2019-04-20T10:50:16.873Z,5.77
2019-04-20T10:52:47.647Z,7.83
2019-04-20T10:55:18.612Z,10.47
2019-04-20T10:57:49.286Z,6.70
2019-04-20T11:00:23.810Z,7.23
2019-04-20T11:02:53.578Z,6.10
2019-04-20T11:05:24.503Z,7.40
2019-04-20T11:07:54.701Z,6.00
2019-04-20T11:10:28.574Z,10.07
2019-04-20T11:12:57.072Z,6.70
2019-04-20T17:33:40.116Z,8.80
2019-04-20T17:36:11.185Z,14.60
2019-04-20T17:38:41.780Z,14.93
2019-04-20T17:41:23.757Z,9.13
2019-04-20T17:43:57.667Z,11.90
2019-04-20T17:48:59.121Z,10.10
2019-04-20T17:51:34.181Z,12.93
2019-04-20T17:54:06.421Z,13.77
2019-04-20T17:56:38.411Z,12.00
2019-04-20T17:59:10.221Z,10.50
2019-04-20T18:07:42.511Z,12.53
2019-04-20T18:10:11.479Z,10.10
2019-04-20T18:12:32.836Z,9.53
2019-04-20T18:15:14.875Z,14.60
2019-04-20T18:18:04.897Z,12.40
2019-04-20T18:20:36.712Z,11.47
2019-04-20T18:23:06.973Z,12.83
2019-04-20T18:26:01.490Z,12.50
2019-04-20T18:28:20.995Z,15.07
2019-04-20T18:31:13.389Z,14.97
2019-04-20T18:33:44.484Z,14.43
2019-04-20T18:36:23.401Z,11.65
2019-04-20T18:38:54.320Z,13.20
2019-04-20T18:41:30.789Z,13.17
2019-04-20T18:43:54.029Z,11.37
2019-04-20T18:46:47.618Z,13.40
2019-04-20T18:49:10.002Z,12.90
2019-04-20T18:51:23.801Z,11.43
2019-04-20T18:53:55.209Z,20.17
2019-04-20T18:56:31.204Z,15.65
2019-04-20T18:58:56.930Z,15.37
2019-04-20T19:01:33.280Z,11.77
2019-04-20T19:03:59.735Z,12.17
2019-04-20T19:06:29.863Z,17.63
2019-04-20T19:09:00.833Z,11.47
2019-04-20T19:11:30.935Z,15.70
2019-04-20T19:14:27.798Z,13.77
2019-04-20T19:17:04.584Z,16.33
2019-04-20T19:19:50.955Z,14.60
2019-04-20T19:22:17.537Z,12.50
2019-04-20T19:24:49.794Z,17.73
2019-04-20T19:27:30.236Z,14.90
2019-04-20T19:29:59.953Z,12.80
2019-04-20T19:32:35.955Z,15.97
2019-04-20T19:35:04.579Z,11.53
2019-04-20T19:37:34.606Z,14.17
2019-04-20T19:40:06.745Z,14.40
2019-04-20T19:43:02.731Z,17.00
2019-04-20T19:46:07.401Z,18.50
2019-04-20T19:48:09.539Z,16.90
2019-04-20T19:50:48.529Z,16.40
2019-04-20T19:53:23.286Z,18.90
2019-04-20T19:55:43.823Z,17.80
2019-04-20T19:58:13.968Z,20.63
2019-04-20T20:00:51.778Z,21.13
2019-04-20T20:03:21.607Z,21.10
2019-04-20T20:05:53.912Z,23.60
2019-04-20T20:08:29.485Z,22.27
2019-04-20T20:10:59.930Z,20.83
2019-04-20T20:13:42.918Z,19.20
2019-04-20T20:16:14.428Z,17.07
2019-04-20T20:18:57.529Z,16.40
2019-04-20T20:21:23.556Z,22.33
2019-04-20T20:23:43.829Z,23.77
2019-04-20T20:26:24.361Z,16.07
2019-04-20T20:28:51.718Z,20.20
2019-04-20T20:31:29.648Z,16.03
2019-04-20T20:34:02.999Z,18.37
2019-04-20T20:36:23.877Z,15.50
2019-04-20T20:38:57.695Z,14.30
2019-04-20T20:41:30.042Z,20.03
2019-04-20T20:44:03.650Z,19.27
2019-04-20T20:46:34.806Z,16.33
2019-04-20T20:49:16.549Z,13.87
2019-04-20T20:51:48.542Z,16.20
2019-04-20T20:54:09.894Z,19.63
2019-04-20T20:56:38.382Z,15.03
2019-04-20T20:59:11.512Z,14.90
2019-04-20T21:01:45.970Z,15.20
2019-04-20T21:04:09.716Z,17.23
2019-04-20T21:06:40.304Z,15.43
2019-04-20T21:09:10.430Z,18.20
2019-04-20T21:11:40.282Z,18.40
2019-04-20T21:14:14.443Z,14.03
2019-04-20T21:16:53.451Z,16.70
2019-04-20T21:19:28.646Z,20.27
2019-04-20T21:21:54.737Z,17.00
2019-04-20T21:24:24.992Z,17.60
2019-04-20T21:26:55.969Z,19.80
2019-04-20T21:29:35.380Z,17.50
2019-04-20T21:32:05.134Z,16.40
2019-04-20T21:34:31.180Z,16.55
2019-04-20T21:37:07.029Z,16.40
2019-04-20T21:39:42.423Z,21.03
2019-04-20T21:42:09.696Z,18.67
2019-04-20T21:47:09.175Z,14.53
2019-04-20T21:49:51.939Z,14.27
2019-04-20T21:52:18.411Z,22.10
2019-04-20T21:57:13.210Z,19.85
2019-04-20T22:12:15.889Z,18.97
2019-04-20T22:14:49.643Z,15.33
2019-04-20T22:17:25.961Z,16.30
2019-04-20T22:20:02.899Z,18.17
2019-04-20T22:22:38.283Z,15.60
2019-04-20T22:25:06.288Z,18.27
2019-04-20T22:27:26.796Z,17.00
2019-04-20T22:29:54.476Z,15.93
2019-04-20T22:32:24.252Z,15.43
2019-04-20T22:35:01.342Z,22.07
2019-04-20T22:37:31.523Z,17.77
2019-04-20T22:40:01.323Z,15.13
2019-04-20T22:42:37.663Z,16.00
2019-04-20T22:45:09.548Z,20.10
2019-04-20T22:47:36.085Z,16.20
2019-04-20T22:50:18.811Z,18.90
2019-04-20T22:52:51.623Z,18.67
2019-04-20T22:55:38.935Z,20.70
2019-04-20T22:57:53.868Z,18.00
2019-04-20T23:00:23.662Z,16.73
2019-04-20T23:02:47.069Z,23.47
2019-04-20T23:05:16.772Z,20.13
2019-04-20T23:07:46.683Z,19.27
2019-04-20T23:10:25.417Z,20.60
2019-04-20T23:12:53.165Z,20.20
2019-04-20T23:15:20.822Z,19.87
2019-04-20T23:17:53.606Z,19.60
2019-04-20T23:20:27.689Z,17.23
2019-04-20T23:22:54.773Z,21.63
2019-04-20T23:25:25.041Z,20.60
2019-04-20T23:28:00.294Z,18.50
2019-04-20T23:30:33.514Z,19.97
2019-04-20T23:32:58.023Z,16.20
2019-04-20T23:35:28.638Z,16.67
2019-04-20T23:38:05.510Z,14.77
2019-04-20T23:40:31.849Z,18.83
2019-04-20T23:43:17.723Z,16.30
2019-04-20T23:45:49.847Z,15.93
2019-04-20T23:48:28.482Z,18.40
2019-04-20T23:51:11.156Z,17.63
2019-04-20T23:53:41.763Z,15.67
2019-04-20T23:55:59.562Z,20.40
2019-04-20T23:58:30.928Z,16.33
